Gays Mills, Wisconsin
Current Conditions -  °F | °C
As of 9:17 PM on Friday 24 Oct 2014 (Local Time) from KOVS Reporting Station
Haze Haze  
Wind Chill: 60°   Ceiling: 2900
Heat Index: 60°   Visibility: 6mi
Dew Point: 57°   Wind: 5mph
Humidity: 90%   Direction: 220°SW
Pressure: 29.92"   Gusts: NA
Location:  43.32°N, 90.84°W
Report Text: KOVS 250217Z AUTO 22004KT 6SM BR OVC029 16/14 A2992 RMK AO2 T01560139
Loading
Personal Weather Stations






























Interactive Weather Map
Tropical Storm Tracking
New forecast layout! Learn more

10-Day Weather Forecast

Advertisements
Track Severe Weather on mobile